sensor_id;sensor_type;location;lat;lon;timestamp;P1;durP1;ratioP1;P2;durP2;ratioP2
3625;SDS011;1827;50.534;8.316;2023-07-08T00:01:19;26.90;;;10.20;;
3625;SDS011;1827;50.534;8.316;2023-07-08T00:03:45;27.67;;;9.43;;
3625;SDS011;1827;50.534;8.316;2023-07-08T00:06:25;27.87;;;10.73;;
3625;SDS011;1827;50.534;8.316;2023-07-08T00:08:52;25.13;;;9.00;;
3625;SDS011;1827;50.534;8.316;2023-07-08T00:11:22;27.37;;;10.33;;
3625;SDS011;1827;50.534;8.316;2023-07-08T00:13:48;28.57;;;9.70;;
3625;SDS011;1827;50.534;8.316;2023-07-08T00:16:15;29.80;;;10.80;;
3625;SDS011;1827;50.534;8.316;2023-07-08T00:18:43;33.20;;;9.97;;
3625;SDS011;1827;50.534;8.316;2023-07-08T00:21:14;27.67;;;10.40;;
3625;SDS011;1827;50.534;8.316;2023-07-08T00:23:48;27.13;;;10.10;;
3625;SDS011;1827;50.534;8.316;2023-07-08T00:26:30;25.03;;;9.97;;
3625;SDS011;1827;50.534;8.316;2023-07-08T00:28:59;31.50;;;10.60;;
3625;SDS011;1827;50.534;8.316;2023-07-08T00:31:28;29.00;;;10.33;;
3625;SDS011;1827;50.534;8.316;2023-07-08T00:34:09;27.73;;;10.80;;
3625;SDS011;1827;50.534;8.316;2023-07-08T00:36:35;27.93;;;10.70;;
3625;SDS011;1827;50.534;8.316;2023-07-08T00:39:04;28.40;;;10.27;;
3625;SDS011;1827;50.534;8.316;2023-07-08T00:41:46;29.70;;;10.20;;
3625;SDS011;1827;50.534;8.316;2023-07-08T00:44:16;27.77;;;10.37;;
3625;SDS011;1827;50.534;8.316;2023-07-08T00:46:46;28.63;;;10.40;;
3625;SDS011;1827;50.534;8.316;2023-07-08T00:52:19;27.50;;;10.40;;
3625;SDS011;1827;50.534;8.316;2023-07-08T00:54:51;30.03;;;9.93;;
3625;SDS011;1827;50.534;8.316;2023-07-08T00:57:19;28.90;;;10.90;;
3625;SDS011;1827;50.534;8.316;2023-07-08T00:59:51;31.30;;;10.37;;
3625;SDS011;1827;50.534;8.316;2023-07-08T01:02:22;30.90;;;10.13;;
3625;SDS011;1827;50.534;8.316;2023-07-08T01:07:55;27.70;;;10.90;;
3625;SDS011;1827;50.534;8.316;2023-07-08T01:10:38;26.30;;;10.17;;
3625;SDS011;1827;50.534;8.316;2023-07-08T01:13:14;28.90;;;11.30;;
3625;SDS011;1827;50.534;8.316;2023-07-08T01:15:42;30.50;;;10.70;;
3625;SDS011;1827;50.534;8.316;2023-07-08T01:18:20;29.00;;;11.60;;
3625;SDS011;1827;50.534;8.316;2023-07-08T01:20:49;28.87;;;11.60;;
3625;SDS011;1827;50.534;8.316;2023-07-08T01:23:16;30.67;;;12.10;;
3625;SDS011;1827;50.534;8.316;2023-07-08T01:25:43;32.43;;;11.50;;
3625;SDS011;1827;50.534;8.316;2023-07-08T01:28:10;32.40;;;12.20;;
3625;SDS011;1827;50.534;8.316;2023-07-08T01:30:37;30.40;;;11.73;;
3625;SDS011;1827;50.534;8.316;2023-07-08T01:33:09;28.13;;;11.47;;
3625;SDS011;1827;50.534;8.316;2023-07-08T01:35:40;34.00;;;11.70;;
3625;SDS011;1827;50.534;8.316;2023-07-08T01:38:08;30.30;;;11.40;;
3625;SDS011;1827;50.534;8.316;2023-07-08T01:40:38;29.13;;;10.83;;
3625;SDS011;1827;50.534;8.316;2023-07-08T01:43:14;32.03;;;10.10;;
3625;SDS011;1827;50.534;8.316;2023-07-08T01:45:42;27.73;;;10.10;;
3625;SDS011;1827;50.534;8.316;2023-07-08T01:48:33;26.30;;;10.17;;
3625;SDS011;1827;50.534;8.316;2023-07-08T01:51:07;28.03;;;10.97;;
3625;SDS011;1827;50.534;8.316;2023-07-08T01:53:44;30.17;;;10.97;;
3625;SDS011;1827;50.534;8.316;2023-07-08T01:56:18;29.60;;;12.00;;
3625;SDS011;1827;50.534;8.316;2023-07-08T01:58:50;30.27;;;12.00;;
3625;SDS011;1827;50.534;8.316;2023-07-08T02:01:18;27.60;;;10.87;;
3625;SDS011;1827;50.534;8.316;2023-07-08T02:03:49;31.60;;;12.27;;
3625;SDS011;1827;50.534;8.316;2023-07-08T02:06:18;28.83;;;10.93;;
3625;SDS011;1827;50.534;8.316;2023-07-08T02:08:45;30.83;;;12.07;;
3625;SDS011;1827;50.534;8.316;2023-07-08T02:11:16;29.03;;;11.13;;
3625;SDS011;1827;50.534;8.316;2023-07-08T02:13:42;32.13;;;11.53;;
3625;SDS011;1827;50.534;8.316;2023-07-08T02:16:13;28.80;;;10.47;;
3625;SDS011;1827;50.534;8.316;2023-07-08T02:18:45;32.33;;;10.53;;
3625;SDS011;1827;50.534;8.316;2023-07-08T02:21:11;27.90;;;10.70;;
3625;SDS011;1827;50.534;8.316;2023-07-08T02:23:39;31.07;;;12.07;;
3625;SDS011;1827;50.534;8.316;2023-07-08T02:26:05;32.80;;;10.90;;
3625;SDS011;1827;50.534;8.316;2023-07-08T02:28:31;28.67;;;11.20;;
3625;SDS011;1827;50.534;8.316;2023-07-08T02:31:03;31.20;;;12.73;;
3625;SDS011;1827;50.534;8.316;2023-07-08T02:33:31;30.23;;;11.40;;
3625;SDS011;1827;50.534;8.316;2023-07-08T02:35:58;31.83;;;11.57;;
3625;SDS011;1827;50.534;8.316;2023-07-08T02:38:25;27.70;;;10.60;;
3625;SDS011;1827;50.534;8.316;2023-07-08T02:40:53;29.73;;;11.30;;
3625;SDS011;1827;50.534;8.316;2023-07-08T02:43:19;31.00;;;11.20;;
3625;SDS011;1827;50.534;8.316;2023-07-08T02:45:45;29.87;;;12.03;;
3625;SDS011;1827;50.534;8.316;2023-07-08T02:48:14;28.40;;;11.40;;
3625;SDS011;1827;50.534;8.316;2023-07-08T02:50:40;29.23;;;11.80;;
3625;SDS011;1827;50.534;8.316;2023-07-08T02:53:06;31.50;;;11.43;;
3625;SDS011;1827;50.534;8.316;2023-07-08T02:55:32;30.27;;;11.20;;
3625;SDS011;1827;50.534;8.316;2023-07-08T02:58:01;30.60;;;11.20;;
3625;SDS011;1827;50.534;8.316;2023-07-08T03:00:26;29.27;;;11.67;;
3625;SDS011;1827;50.534;8.316;2023-07-08T03:02:53;30.83;;;11.27;;
3625;SDS011;1827;50.534;8.316;2023-07-08T03:05:19;30.00;;;11.37;;
3625;SDS011;1827;50.534;8.316;2023-07-08T03:07:45;28.97;;;10.87;;
3625;SDS011;1827;50.534;8.316;2023-07-08T03:10:11;28.70;;;11.43;;
3625;SDS011;1827;50.534;8.316;2023-07-08T03:12:37;28.37;;;11.20;;
3625;SDS011;1827;50.534;8.316;2023-07-08T03:15:04;29.83;;;10.93;;
3625;SDS011;1827;50.534;8.316;2023-07-08T03:17:30;32.23;;;11.27;;
3625;SDS011;1827;50.534;8.316;2023-07-08T03:19:56;26.57;;;11.07;;
3625;SDS011;1827;50.534;8.316;2023-07-08T03:22:22;27.90;;;10.60;;
3625;SDS011;1827;50.534;8.316;2023-07-08T03:24:48;26.73;;;10.47;;
3625;SDS011;1827;50.534;8.316;2023-07-08T03:27:17;29.93;;;11.50;;
3625;SDS011;1827;50.534;8.316;2023-07-08T03:29:52;31.23;;;11.40;;
3625;SDS011;1827;50.534;8.316;2023-07-08T03:32:18;29.37;;;11.10;;
3625;SDS011;1827;50.534;8.316;2023-07-08T03:34:43;28.00;;;10.23;;
3625;SDS011;1827;50.534;8.316;2023-07-08T03:37:09;30.53;;;10.87;;
3625;SDS011;1827;50.534;8.316;2023-07-08T03:39:35;29.17;;;11.13;;
3625;SDS011;1827;50.534;8.316;2023-07-08T03:42:04;29.03;;;10.73;;
3625;SDS011;1827;50.534;8.316;2023-07-08T03:44:38;26.40;;;10.40;;
3625;SDS011;1827;50.534;8.316;2023-07-08T03:47:04;27.30;;;10.30;;
3625;SDS011;1827;50.534;8.316;2023-07-08T03:49:33;28.93;;;10.47;;
3625;SDS011;1827;50.534;8.316;2023-07-08T03:52:04;26.33;;;10.07;;
3625;SDS011;1827;50.534;8.316;2023-07-08T03:54:53;27.73;;;10.70;;
3625;SDS011;1827;50.534;8.316;2023-07-08T03:57:23;30.10;;;11.70;;
3625;SDS011;1827;50.534;8.316;2023-07-08T03:59:51;26.67;;;9.90;;
3625;SDS011;1827;50.534;8.316;2023-07-08T04:02:25;27.23;;;11.20;;
3625;SDS011;1827;50.534;8.316;2023-07-08T04:04:51;26.87;;;10.20;;
3625;SDS011;1827;50.534;8.316;2023-07-08T04:07:17;26.40;;;10.00;;
3625;SDS011;1827;50.534;8.316;2023-07-08T04:09:50;28.03;;;10.87;;
3625;SDS011;1827;50.534;8.316;2023-07-08T04:12:16;27.30;;;10.20;;
3625;SDS011;1827;50.534;8.316;2023-07-08T04:14:45;31.20;;;10.97;;
3625;SDS011;1827;50.534;8.316;2023-07-08T04:17:14;26.70;;;9.93;;
3625;SDS011;1827;50.534;8.316;2023-07-08T04:19:42;28.27;;;11.10;;
3625;SDS011;1827;50.534;8.316;2023-07-08T04:22:09;31.63;;;11.30;;
3625;SDS011;1827;50.534;8.316;2023-07-08T04:24:35;26.70;;;10.43;;
3625;SDS011;1827;50.534;8.316;2023-07-08T04:27:03;30.93;;;10.60;;
3625;SDS011;1827;50.534;8.316;2023-07-08T04:29:32;27.17;;;10.97;;
3625;SDS011;1827;50.534;8.316;2023-07-08T04:32:00;28.40;;;10.90;;
3625;SDS011;1827;50.534;8.316;2023-07-08T04:34:28;28.57;;;11.23;;
3625;SDS011;1827;50.534;8.316;2023-07-08T04:36:57;32.73;;;10.53;;
3625;SDS011;1827;50.534;8.316;2023-07-08T04:39:23;26.00;;;10.57;;
3625;SDS011;1827;50.534;8.316;2023-07-08T04:41:52;29.70;;;10.60;;
3625;SDS011;1827;50.534;8.316;2023-07-08T04:44:18;27.37;;;10.40;;
3625;SDS011;1827;50.534;8.316;2023-07-08T04:49:16;26.77;;;9.97;;
3625;SDS011;1827;50.534;8.316;2023-07-08T04:51:42;28.33;;;10.07;;
3625;SDS011;1827;50.534;8.316;2023-07-08T04:54:09;28.90;;;10.83;;
3625;SDS011;1827;50.534;8.316;2023-07-08T04:56:38;25.13;;;9.30;;
3625;SDS011;1827;50.534;8.316;2023-07-08T04:59:07;32.00;;;9.53;;
3625;SDS011;1827;50.534;8.316;2023-07-08T05:01:38;27.60;;;10.23;;
3625;SDS011;1827;50.534;8.316;2023-07-08T05:04:04;25.40;;;9.07;;
3625;SDS011;1827;50.534;8.316;2023-07-08T05:06:34;26.93;;;9.43;;
3625;SDS011;1827;50.534;8.316;2023-07-08T05:09:06;27.60;;;9.00;;
3625;SDS011;1827;50.534;8.316;2023-07-08T05:11:33;25.30;;;9.67;;
3625;SDS011;1827;50.534;8.316;2023-07-08T05:14:05;27.40;;;10.00;;
3625;SDS011;1827;50.534;8.316;2023-07-08T05:16:36;24.17;;;8.90;;
3625;SDS011;1827;50.534;8.316;2023-07-08T05:19:07;27.50;;;8.97;;
3625;SDS011;1827;50.534;8.316;2023-07-08T05:21:54;24.03;;;8.63;;
3625;SDS011;1827;50.534;8.316;2023-07-08T05:24:22;24.77;;;9.40;;
3625;SDS011;1827;50.534;8.316;2023-07-08T05:26:54;25.30;;;9.40;;
3625;SDS011;1827;50.534;8.316;2023-07-08T05:29:20;24.10;;;8.80;;
3625;SDS011;1827;50.534;8.316;2023-07-08T05:31:45;25.30;;;9.07;;
3625;SDS011;1827;50.534;8.316;2023-07-08T05:34:11;22.30;;;8.60;;
3625;SDS011;1827;50.534;8.316;2023-07-08T05:36:37;24.10;;;8.87;;
3625;SDS011;1827;50.534;8.316;2023-07-08T05:39:04;22.80;;;8.60;;
3625;SDS011;1827;50.534;8.316;2023-07-08T05:41:30;24.83;;;7.83;;
3625;SDS011;1827;50.534;8.316;2023-07-08T05:43:59;23.23;;;8.50;;
3625;SDS011;1827;50.534;8.316;2023-07-08T05:46:25;26.27;;;8.90;;
3625;SDS011;1827;50.534;8.316;2023-07-08T05:48:51;24.63;;;8.67;;
3625;SDS011;1827;50.534;8.316;2023-07-08T05:51:33;25.57;;;8.30;;
3625;SDS011;1827;50.534;8.316;2023-07-08T05:54:03;24.13;;;8.30;;
3625;SDS011;1827;50.534;8.316;2023-07-08T05:56:36;24.10;;;8.53;;
3625;SDS011;1827;50.534;8.316;2023-07-08T05:59:07;25.33;;;7.83;;
3625;SDS011;1827;50.534;8.316;2023-07-08T06:01:44;24.53;;;8.10;;
3625;SDS011;1827;50.534;8.316;2023-07-08T06:04:20;22.33;;;7.77;;
3625;SDS011;1827;50.534;8.316;2023-07-08T06:06:58;26.03;;;7.20;;
3625;SDS011;1827;50.534;8.316;2023-07-08T06:09:33;21.67;;;6.87;;
3625;SDS011;1827;50.534;8.316;2023-07-08T06:12:02;23.60;;;7.50;;
3625;SDS011;1827;50.534;8.316;2023-07-08T06:14:37;24.50;;;6.90;;
3625;SDS011;1827;50.534;8.316;2023-07-08T06:17:09;23.50;;;6.70;;
3625;SDS011;1827;50.534;8.316;2023-07-08T06:19:37;19.40;;;6.00;;
3625;SDS011;1827;50.534;8.316;2023-07-08T06:22:16;18.53;;;5.60;;
3625;SDS011;1827;50.534;8.316;2023-07-08T06:24:44;21.67;;;6.97;;
3625;SDS011;1827;50.534;8.316;2023-07-08T06:27:13;19.80;;;5.80;;
3625;SDS011;1827;50.534;8.316;2023-07-08T06:29:39;18.57;;;5.70;;
3625;SDS011;1827;50.534;8.316;2023-07-08T06:32:05;19.33;;;6.10;;
3625;SDS011;1827;50.534;8.316;2023-07-08T06:34:35;20.50;;;6.30;;
3625;SDS011;1827;50.534;8.316;2023-07-08T06:37:00;23.20;;;6.50;;
3625;SDS011;1827;50.534;8.316;2023-07-08T06:39:29;22.83;;;5.77;;
3625;SDS011;1827;50.534;8.316;2023-07-08T06:41:55;22.20;;;5.90;;
3625;SDS011;1827;50.534;8.316;2023-07-08T06:44:25;19.33;;;5.90;;
3625;SDS011;1827;50.534;8.316;2023-07-08T06:46:51;22.80;;;6.40;;
3625;SDS011;1827;50.534;8.316;2023-07-08T06:49:17;19.70;;;5.73;;
3625;SDS011;1827;50.534;8.316;2023-07-08T06:51:43;22.27;;;7.00;;
3625;SDS011;1827;50.534;8.316;2023-07-08T06:54:14;24.67;;;6.67;;
3625;SDS011;1827;50.534;8.316;2023-07-08T06:56:57;20.53;;;5.97;;
3625;SDS011;1827;50.534;8.316;2023-07-08T06:59:34;20.33;;;6.03;;
3625;SDS011;1827;50.534;8.316;2023-07-08T07:02:09;24.10;;;6.37;;
3625;SDS011;1827;50.534;8.316;2023-07-08T07:04:40;21.10;;;6.07;;
3625;SDS011;1827;50.534;8.316;2023-07-08T07:07:14;18.60;;;6.03;;
3625;SDS011;1827;50.534;8.316;2023-07-08T07:09:44;19.43;;;5.80;;
3625;SDS011;1827;50.534;8.316;2023-07-08T07:12:25;24.87;;;6.07;;
3625;SDS011;1827;50.534;8.316;2023-07-08T07:14:59;19.80;;;6.40;;
3625;SDS011;1827;50.534;8.316;2023-07-08T07:17:31;23.93;;;7.00;;
3625;SDS011;1827;50.534;8.316;2023-07-08T07:20:01;21.17;;;6.70;;
3625;SDS011;1827;50.534;8.316;2023-07-08T07:22:41;21.43;;;6.40;;
3625;SDS011;1827;50.534;8.316;2023-07-08T07:25:17;21.07;;;6.50;;
3625;SDS011;1827;50.534;8.316;2023-07-08T07:27:53;21.83;;;5.80;;
3625;SDS011;1827;50.534;8.316;2023-07-08T07:30:23;24.20;;;6.20;;
3625;SDS011;1827;50.534;8.316;2023-07-08T07:32:51;20.23;;;6.20;;
3625;SDS011;1827;50.534;8.316;2023-07-08T07:35:17;23.13;;;6.30;;
3625;SDS011;1827;50.534;8.316;2023-07-08T07:37:47;19.47;;;6.43;;
3625;SDS011;1827;50.534;8.316;2023-07-08T07:40:13;20.27;;;6.00;;
3625;SDS011;1827;50.534;8.316;2023-07-08T07:42:49;20.27;;;6.20;;
3625;SDS011;1827;50.534;8.316;2023-07-08T07:45:18;22.40;;;6.23;;
3625;SDS011;1827;50.534;8.316;2023-07-08T07:47:49;21.53;;;6.57;;
3625;SDS011;1827;50.534;8.316;2023-07-08T07:50:15;22.23;;;6.30;;
3625;SDS011;1827;50.534;8.316;2023-07-08T07:52:55;21.07;;;5.83;;
3625;SDS011;1827;50.534;8.316;2023-07-08T07:55:24;21.37;;;5.80;;
3625;SDS011;1827;50.534;8.316;2023-07-08T07:57:50;19.53;;;5.53;;
3625;SDS011;1827;50.534;8.316;2023-07-08T08:00:16;19.47;;;5.23;;
3625;SDS011;1827;50.534;8.316;2023-07-08T08:02:48;20.67;;;4.90;;
3625;SDS011;1827;50.534;8.316;2023-07-08T08:05:17;19.30;;;5.20;;
3625;SDS011;1827;50.534;8.316;2023-07-08T08:07:44;20.63;;;4.30;;
3625;SDS011;1827;50.534;8.316;2023-07-08T08:10:15;23.23;;;5.73;;
3625;SDS011;1827;50.534;8.316;2023-07-08T08:12:44;18.73;;;4.80;;
3625;SDS011;1827;50.534;8.316;2023-07-08T08:15:18;18.83;;;4.60;;
3625;SDS011;1827;50.534;8.316;2023-07-08T08:17:44;17.40;;;4.80;;
3625;SDS011;1827;50.534;8.316;2023-07-08T08:20:13;19.83;;;5.00;;
3625;SDS011;1827;50.534;8.316;2023-07-08T08:22:40;18.43;;;4.93;;
3625;SDS011;1827;50.534;8.316;2023-07-08T08:25:06;16.13;;;4.90;;
3625;SDS011;1827;50.534;8.316;2023-07-08T08:27:37;19.93;;;4.83;;
3625;SDS011;1827;50.534;8.316;2023-07-08T08:30:04;17.13;;;4.30;;
3625;SDS011;1827;50.534;8.316;2023-07-08T08:32:30;16.13;;;4.50;;
3625;SDS011;1827;50.534;8.316;2023-07-08T08:34:56;15.07;;;4.20;;
3625;SDS011;1827;50.534;8.316;2023-07-08T08:37:22;19.60;;;4.83;;
3625;SDS011;1827;50.534;8.316;2023-07-08T08:39:48;20.83;;;4.40;;
3625;SDS011;1827;50.534;8.316;2023-07-08T08:42:20;16.27;;;4.67;;
3625;SDS011;1827;50.534;8.316;2023-07-08T08:44:57;14.90;;;4.50;;
3625;SDS011;1827;50.534;8.316;2023-07-08T08:47:29;19.20;;;5.10;;
3625;SDS011;1827;50.534;8.316;2023-07-08T08:50:04;16.53;;;4.77;;
3625;SDS011;1827;50.534;8.316;2023-07-08T08:52:52;14.87;;;4.50;;
3625;SDS011;1827;50.534;8.316;2023-07-08T08:55:24;21.27;;;5.90;;
3625;SDS011;1827;50.534;8.316;2023-07-08T08:58:00;33.67;;;7.20;;
3625;SDS011;1827;50.534;8.316;2023-07-08T09:00:41;16.80;;;4.90;;
3625;SDS011;1827;50.534;8.316;2023-07-08T09:03:14;14.67;;;4.43;;
3625;SDS011;1827;50.534;8.316;2023-07-08T09:05:43;27.20;;;6.60;;
3625;SDS011;1827;50.534;8.316;2023-07-08T09:08:26;66.30;;;11.13;;
3625;SDS011;1827;50.534;8.316;2023-07-08T09:11:00;16.07;;;4.87;;
3625;SDS011;1827;50.534;8.316;2023-07-08T09:13:35;17.33;;;4.30;;
3625;SDS011;1827;50.534;8.316;2023-07-08T09:16:09;13.83;;;3.80;;
3625;SDS011;1827;50.534;8.316;2023-07-08T09:24:10;14.47;;;3.70;;
3625;SDS011;1827;50.534;8.316;2023-07-08T09:26:49;15.60;;;4.03;;
3625;SDS011;1827;50.534;8.316;2023-07-08T09:29:24;12.20;;;3.67;;
3625;SDS011;1827;50.534;8.316;2023-07-08T09:31:56;14.47;;;4.03;;
3625;SDS011;1827;50.534;8.316;2023-07-08T09:34:23;16.70;;;4.67;;
3625;SDS011;1827;50.534;8.316;2023-07-08T09:37:03;14.87;;;4.23;;
3625;SDS011;1827;50.534;8.316;2023-07-08T09:39:46;15.03;;;4.33;;
3625;SDS011;1827;50.534;8.316;2023-07-08T09:42:12;13.50;;;4.00;;
3625;SDS011;1827;50.534;8.316;2023-07-08T09:44:40;14.50;;;4.80;;
3625;SDS011;1827;50.534;8.316;2023-07-08T09:50:16;19.50;;;4.37;;
3625;SDS011;1827;50.534;8.316;2023-07-08T09:52:52;16.70;;;4.10;;
3625;SDS011;1827;50.534;8.316;2023-07-08T09:55:24;14.60;;;4.20;;
3625;SDS011;1827;50.534;8.316;2023-07-08T09:57:51;14.10;;;4.03;;
3625;SDS011;1827;50.534;8.316;2023-07-08T10:00:25;19.00;;;4.30;;
3625;SDS011;1827;50.534;8.316;2023-07-08T10:02:54;15.73;;;4.00;;
3625;SDS011;1827;50.534;8.316;2023-07-08T10:07:57;17.23;;;4.43;;
3625;SDS011;1827;50.534;8.316;2023-07-08T10:10:26;15.73;;;4.03;;
3625;SDS011;1827;50.534;8.316;2023-07-08T10:13:03;18.00;;;4.40;;
3625;SDS011;1827;50.534;8.316;2023-07-08T10:16:10;14.20;;;4.33;;
3625;SDS011;1827;50.534;8.316;2023-07-08T10:18:40;17.70;;;4.40;;
3625;SDS011;1827;50.534;8.316;2023-07-08T10:21:25;16.40;;;4.47;;
3625;SDS011;1827;50.534;8.316;2023-07-08T10:24:13;17.27;;;4.23;;
3625;SDS011;1827;50.534;8.316;2023-07-08T10:26:43;13.60;;;4.13;;
3625;SDS011;1827;50.534;8.316;2023-07-08T10:29:19;23.63;;;6.20;;
3625;SDS011;1827;50.534;8.316;2023-07-08T10:34:35;16.17;;;4.13;;
3625;SDS011;1827;50.534;8.316;2023-07-08T10:37:16;12.60;;;3.90;;
3625;SDS011;1827;50.534;8.316;2023-07-08T10:42:42;12.90;;;4.20;;
3625;SDS011;1827;50.534;8.316;2023-07-08T10:45:40;12.50;;;3.97;;
3625;SDS011;1827;50.534;8.316;2023-07-08T10:48:21;13.40;;;3.83;;
3625;SDS011;1827;50.534;8.316;2023-07-08T10:54:00;12.10;;;3.80;;
3625;SDS011;1827;50.534;8.316;2023-07-08T10:56:41;13.67;;;4.10;;
3625;SDS011;1827;50.534;8.316;2023-07-08T11:02:00;14.90;;;4.50;;
3625;SDS011;1827;50.534;8.316;2023-07-08T11:07:36;13.83;;;4.20;;
3625;SDS011;1827;50.534;8.316;2023-07-08T11:10:15;27.97;;;5.50;;
3625;SDS011;1827;50.534;8.316;2023-07-08T11:12:47;16.23;;;4.37;;
3625;SDS011;1827;50.534;8.316;2023-07-08T11:15:25;14.93;;;4.60;;
3625;SDS011;1827;50.534;8.316;2023-07-08T11:21:05;16.27;;;4.63;;
3625;SDS011;1827;50.534;8.316;2023-07-08T11:23:39;14.80;;;4.60;;
3625;SDS011;1827;50.534;8.316;2023-07-08T11:28:56;14.43;;;4.47;;
3625;SDS011;1827;50.534;8.316;2023-07-08T11:31:23;14.03;;;4.53;;
3625;SDS011;1827;50.534;8.316;2023-07-08T11:33:50;14.57;;;4.00;;
3625;SDS011;1827;50.534;8.316;2023-07-08T11:36:17;15.27;;;4.57;;
3625;SDS011;1827;50.534;8.316;2023-07-08T11:38:48;18.60;;;4.60;;
3625;SDS011;1827;50.534;8.316;2023-07-08T11:41:16;14.20;;;4.80;;
3625;SDS011;1827;50.534;8.316;2023-07-08T11:43:46;16.93;;;4.63;;
3625;SDS011;1827;50.534;8.316;2023-07-08T11:46:29;19.37;;;5.33;;
3625;SDS011;1827;50.534;8.316;2023-07-08T11:49:00;13.97;;;4.43;;
3625;SDS011;1827;50.534;8.316;2023-07-08T11:51:41;13.30;;;4.30;;
3625;SDS011;1827;50.534;8.316;2023-07-08T11:54:14;13.50;;;4.47;;
3625;SDS011;1827;50.534;8.316;2023-07-08T11:57:14;15.40;;;4.13;;
3625;SDS011;1827;50.534;8.316;2023-07-08T12:00:06;14.50;;;4.30;;
3625;SDS011;1827;50.534;8.316;2023-07-08T12:02:55;12.80;;;4.03;;
3625;SDS011;1827;50.534;8.316;2023-07-08T12:05:33;13.10;;;4.27;;
3625;SDS011;1827;50.534;8.316;2023-07-08T12:08:01;13.03;;;3.93;;
3625;SDS011;1827;50.534;8.316;2023-07-08T12:10:36;14.43;;;4.57;;
3625;SDS011;1827;50.534;8.316;2023-07-08T12:13:09;12.43;;;4.17;;
3625;SDS011;1827;50.534;8.316;2023-07-08T12:15:42;15.47;;;4.27;;
3625;SDS011;1827;50.534;8.316;2023-07-08T12:18:15;14.07;;;4.13;;
3625;SDS011;1827;50.534;8.316;2023-07-08T12:20:59;14.97;;;4.17;;
3625;SDS011;1827;50.534;8.316;2023-07-08T12:23:29;14.05;;;4.95;;
3625;SDS011;1827;50.534;8.316;2023-07-08T12:25:56;13.53;;;4.00;;
3625;SDS011;1827;50.534;8.316;2023-07-08T12:28:26;13.50;;;3.87;;
3625;SDS011;1827;50.534;8.316;2023-07-08T12:30:52;17.90;;;4.00;;
3625;SDS011;1827;50.534;8.316;2023-07-08T12:33:30;15.73;;;4.90;;
3625;SDS011;1827;50.534;8.316;2023-07-08T12:36:02;13.70;;;4.40;;
3625;SDS011;1827;50.534;8.316;2023-07-08T12:38:37;17.63;;;4.20;;
3625;SDS011;1827;50.534;8.316;2023-07-08T12:41:41;12.90;;;3.70;;
3625;SDS011;1827;50.534;8.316;2023-07-08T12:44:00;15.43;;;4.30;;
3625;SDS011;1827;50.534;8.316;2023-07-08T12:46:33;15.77;;;4.37;;
3625;SDS011;1827;50.534;8.316;2023-07-08T12:48:59;13.30;;;3.77;;
3625;SDS011;1827;50.534;8.316;2023-07-08T12:51:26;13.13;;;4.13;;
3625;SDS011;1827;50.534;8.316;2023-07-08T12:53:53;14.00;;;3.90;;
3625;SDS011;1827;50.534;8.316;2023-07-08T12:56:20;14.77;;;4.10;;
3625;SDS011;1827;50.534;8.316;2023-07-08T12:58:49;11.30;;;3.70;;
3625;SDS011;1827;50.534;8.316;2023-07-08T13:01:17;15.33;;;4.43;;
3625;SDS011;1827;50.534;8.316;2023-07-08T13:03:53;14.53;;;4.27;;
3625;SDS011;1827;50.534;8.316;2023-07-08T13:06:24;12.93;;;4.23;;
3625;SDS011;1827;50.534;8.316;2023-07-08T13:08:56;17.30;;;4.50;;
3625;SDS011;1827;50.534;8.316;2023-07-08T13:11:47;23.43;;;4.73;;
3625;SDS011;1827;50.534;8.316;2023-07-08T13:14:15;15.60;;;4.20;;
3625;SDS011;1827;50.534;8.316;2023-07-08T13:16:48;15.27;;;4.60;;
3625;SDS011;1827;50.534;8.316;2023-07-08T13:19:14;13.73;;;3.53;;
3625;SDS011;1827;50.534;8.316;2023-07-08T13:24:09;15.67;;;3.77;;
3625;SDS011;1827;50.534;8.316;2023-07-08T13:26:38;21.00;;;4.40;;
3625;SDS011;1827;50.534;8.316;2023-07-08T13:29:14;18.23;;;4.50;;
3625;SDS011;1827;50.534;8.316;2023-07-08T13:31:48;14.23;;;4.20;;
3625;SDS011;1827;50.534;8.316;2023-07-08T13:34:18;15.77;;;4.27;;
3625;SDS011;1827;50.534;8.316;2023-07-08T13:54:59;16.30;;;4.67;;
3625;SDS011;1827;50.534;8.316;2023-07-08T13:57:29;14.07;;;5.00;;
3625;SDS011;1827;50.534;8.316;2023-07-08T13:59:59;14.20;;;4.60;;
3625;SDS011;1827;50.534;8.316;2023-07-08T14:02:37;15.30;;;4.67;;
3625;SDS011;1827;50.534;8.316;2023-07-08T14:05:09;16.30;;;4.80;;
3625;SDS011;1827;50.534;8.316;2023-07-08T14:07:40;15.07;;;4.57;;
3625;SDS011;1827;50.534;8.316;2023-07-08T14:10:11;16.10;;;4.83;;
3625;SDS011;1827;50.534;8.316;2023-07-08T14:12:38;15.80;;;4.67;;
3625;SDS011;1827;50.534;8.316;2023-07-08T14:15:07;15.53;;;4.20;;
3625;SDS011;1827;50.534;8.316;2023-07-08T14:17:43;18.60;;;4.83;;
3625;SDS011;1827;50.534;8.316;2023-07-08T14:20:10;14.00;;;4.30;;
3625;SDS011;1827;50.534;8.316;2023-07-08T14:22:40;14.23;;;4.60;;
3625;SDS011;1827;50.534;8.316;2023-07-08T14:25:07;18.23;;;5.40;;
3625;SDS011;1827;50.534;8.316;2023-07-08T14:27:34;14.00;;;4.43;;
3625;SDS011;1827;50.534;8.316;2023-07-08T14:30:00;16.17;;;4.43;;
3625;SDS011;1827;50.534;8.316;2023-07-08T14:32:28;13.17;;;4.40;;
3625;SDS011;1827;50.534;8.316;2023-07-08T14:35:00;15.80;;;5.20;;
3625;SDS011;1827;50.534;8.316;2023-07-08T14:37:41;14.07;;;4.63;;
3625;SDS011;1827;50.534;8.316;2023-07-08T14:40:20;16.13;;;4.50;;
3625;SDS011;1827;50.534;8.316;2023-07-08T14:43:32;15.60;;;4.67;;
3625;SDS011;1827;50.534;8.316;2023-07-08T14:45:53;13.97;;;4.80;;
3625;SDS011;1827;50.534;8.316;2023-07-08T14:48:21;22.83;;;4.87;;
3625;SDS011;1827;50.534;8.316;2023-07-08T14:50:47;15.23;;;5.10;;
3625;SDS011;1827;50.534;8.316;2023-07-08T14:53:14;15.60;;;5.13;;
3625;SDS011;1827;50.534;8.316;2023-07-08T14:55:47;20.03;;;4.90;;
3625;SDS011;1827;50.534;8.316;2023-07-08T14:58:28;17.10;;;5.10;;
3625;SDS011;1827;50.534;8.316;2023-07-08T15:00:57;15.53;;;4.37;;
3625;SDS011;1827;50.534;8.316;2023-07-08T15:03:25;17.53;;;4.37;;
3625;SDS011;1827;50.534;8.316;2023-07-08T15:05:57;16.07;;;4.43;;
3625;SDS011;1827;50.534;8.316;2023-07-08T15:08:25;15.30;;;5.03;;
3625;SDS011;1827;50.534;8.316;2023-07-08T15:10:52;14.23;;;5.00;;
3625;SDS011;1827;50.534;8.316;2023-07-08T15:13:30;14.60;;;5.23;;
3625;SDS011;1827;50.534;8.316;2023-07-08T15:15:59;18.00;;;4.40;;
3625;SDS011;1827;50.534;8.316;2023-07-08T15:18:27;17.90;;;5.83;;
3625;SDS011;1827;50.534;8.316;2023-07-08T15:20:58;18.43;;;5.47;;
3625;SDS011;1827;50.534;8.316;2023-07-08T15:23:24;18.87;;;5.17;;
3625;SDS011;1827;50.534;8.316;2023-07-08T15:25:58;15.23;;;4.50;;
3625;SDS011;1827;50.534;8.316;2023-07-08T15:31:20;15.23;;;4.33;;
3625;SDS011;1827;50.534;8.316;2023-07-08T15:33:57;14.90;;;5.07;;
3625;SDS011;1827;50.534;8.316;2023-07-08T15:36:28;18.70;;;5.10;;
3625;SDS011;1827;50.534;8.316;2023-07-08T15:38:59;18.00;;;4.57;;
3625;SDS011;1827;50.534;8.316;2023-07-08T15:41:34;15.87;;;5.13;;
3625;SDS011;1827;50.534;8.316;2023-07-08T15:44:00;14.07;;;4.57;;
3625;SDS011;1827;50.534;8.316;2023-07-08T15:46:37;18.40;;;4.80;;
3625;SDS011;1827;50.534;8.316;2023-07-08T15:49:26;20.83;;;6.10;;
3625;SDS011;1827;50.534;8.316;2023-07-08T15:54:43;13.80;;;4.50;;
3625;SDS011;1827;50.534;8.316;2023-07-08T15:57:22;16.83;;;4.50;;
3625;SDS011;1827;50.534;8.316;2023-07-08T15:59:53;19.53;;;5.27;;
3625;SDS011;1827;50.534;8.316;2023-07-08T16:02:33;18.63;;;5.20;;
3625;SDS011;1827;50.534;8.316;2023-07-08T16:05:08;19.80;;;4.70;;
3625;SDS011;1827;50.534;8.316;2023-07-08T16:07:47;15.10;;;4.80;;
3625;SDS011;1827;50.534;8.316;2023-07-08T16:10:26;17.13;;;5.23;;
3625;SDS011;1827;50.534;8.316;2023-07-08T16:12:54;15.20;;;4.67;;
3625;SDS011;1827;50.534;8.316;2023-07-08T16:15:28;17.27;;;5.23;;
3625;SDS011;1827;50.534;8.316;2023-07-08T16:18:04;20.27;;;5.33;;
3625;SDS011;1827;50.534;8.316;2023-07-08T16:20:40;17.90;;;5.17;;
3625;SDS011;1827;50.534;8.316;2023-07-08T16:23:17;18.10;;;5.07;;
3625;SDS011;1827;50.534;8.316;2023-07-08T16:25:58;16.80;;;5.23;;
3625;SDS011;1827;50.534;8.316;2023-07-08T16:28:37;16.37;;;4.83;;
3625;SDS011;1827;50.534;8.316;2023-07-08T16:31:17;21.80;;;5.40;;